sensor_id;sensor_type;location;lat;lon;timestamp;temperature;humidity
69204;DHT22;56317;27.658;85.326;2023-09-07T00:02:03;19.80;99.90
69204;DHT22;56317;27.658;85.326;2023-09-07T00:04:30;19.80;99.90
69204;DHT22;56317;27.658;85.326;2023-09-07T00:06:58;19.80;99.90
69204;DHT22;56317;27.658;85.326;2023-09-07T00:09:25;19.90;99.90
69204;DHT22;56317;27.658;85.326;2023-09-07T00:11:53;19.90;99.90
69204;DHT22;56317;27.658;85.326;2023-09-07T00:14:20;19.90;99.90
69204;DHT22;56317;27.658;85.326;2023-09-07T00:16:47;19.90;99.90
69204;DHT22;56317;27.658;85.326;2023-09-07T00:19:14;20.00;99.90
69204;DHT22;56317;27.658;85.326;2023-09-07T00:21:42;20.00;99.90
69204;DHT22;56317;27.658;85.326;2023-09-07T00:24:09;20.10;99.90
69204;DHT22;56317;27.658;85.326;2023-09-07T00:26:36;20.10;99.90
69204;DHT22;56317;27.658;85.326;2023-09-07T00:29:03;20.20;99.90
69204;DHT22;56317;27.658;85.326;2023-09-07T00:31:32;20.20;99.90
69204;DHT22;56317;27.658;85.326;2023-09-07T00:33:59;20.30;99.90
69204;DHT22;56317;27.658;85.326;2023-09-07T00:36:27;20.30;99.90
69204;DHT22;56317;27.658;85.326;2023-09-07T00:38:54;20.40;99.90
69204;DHT22;56317;27.658;85.326;2023-09-07T00:41:21;20.40;99.90
69204;DHT22;56317;27.658;85.326;2023-09-07T00:43:48;20.50;99.90
69204;DHT22;56317;27.658;85.326;2023-09-07T00:46:15;20.50;99.90
69204;DHT22;56317;27.658;85.326;2023-09-07T00:48:43;20.50;99.90
69204;DHT22;56317;27.658;85.326;2023-09-07T00:51:10;20.60;99.90
69204;DHT22;56317;27.658;85.326;2023-09-07T00:53:37;20.60;99.90
69204;DHT22;56317;27.658;85.326;2023-09-07T00:56:05;20.70;99.90
69204;DHT22;56317;27.658;85.326;2023-09-07T00:58:33;20.70;99.90
69204;DHT22;56317;27.658;85.326;2023-09-07T01:01:00;20.70;99.90
69204;DHT22;56317;27.658;85.326;2023-09-07T01:03:28;20.70;99.90
69204;DHT22;56317;27.658;85.326;2023-09-07T01:06:01;20.80;99.90
69204;DHT22;56317;27.658;85.326;2023-09-07T01:08:39;20.80;99.90
69204;DHT22;56317;27.658;85.326;2023-09-07T01:11:18;20.90;99.90
69204;DHT22;56317;27.658;85.326;2023-09-07T01:13:49;21.00;99.90
69204;DHT22;56317;27.658;85.326;2023-09-07T01:16:20;21.00;99.90
69204;DHT22;56317;27.658;85.326;2023-09-07T01:18:47;21.10;99.90
69204;DHT22;56317;27.658;85.326;2023-09-07T01:21:14;21.20;99.90
69204;DHT22;56317;27.658;85.326;2023-09-07T01:23:44;21.30;99.90
69204;DHT22;56317;27.658;85.326;2023-09-07T01:26:14;21.40;99.90
69204;DHT22;56317;27.658;85.326;2023-09-07T01:28:41;21.50;99.90
69204;DHT22;56317;27.658;85.326;2023-09-07T01:31:09;21.50;99.90
69204;DHT22;56317;27.658;85.326;2023-09-07T01:33:37;21.60;99.90
69204;DHT22;56317;27.658;85.326;2023-09-07T01:36:05;21.60;99.90
69204;DHT22;56317;27.658;85.326;2023-09-07T01:38:32;21.70;99.90
69204;DHT22;56317;27.658;85.326;2023-09-07T01:40:59;21.90;99.90
69204;DHT22;56317;27.658;85.326;2023-09-07T01:43:29;22.10;99.90
69204;DHT22;56317;27.658;85.326;2023-09-07T01:45:56;22.30;99.90
69204;DHT22;56317;27.658;85.326;2023-09-07T01:48:24;22.40;99.90
69204;DHT22;56317;27.658;85.326;2023-09-07T01:50:54;22.50;99.90
69204;DHT22;56317;27.658;85.326;2023-09-07T01:53:21;22.60;99.90
69204;DHT22;56317;27.658;85.326;2023-09-07T01:55:48;22.70;99.90
69204;DHT22;56317;27.658;85.326;2023-09-07T01:58:15;22.80;99.90
69204;DHT22;56317;27.658;85.326;2023-09-07T02:00:43;22.70;99.90
69204;DHT22;56317;27.658;85.326;2023-09-07T02:03:10;22.80;99.90
69204;DHT22;56317;27.658;85.326;2023-09-07T02:05:37;23.00;99.90
69204;DHT22;56317;27.658;85.326;2023-09-07T02:08:05;23.20;99.90
69204;DHT22;56317;27.658;85.326;2023-09-07T02:10:34;23.30;99.90
69204;DHT22;56317;27.658;85.326;2023-09-07T02:13:01;23.30;99.90
69204;DHT22;56317;27.658;85.326;2023-09-07T02:15:31;23.50;99.90
69204;DHT22;56317;27.658;85.326;2023-09-07T02:18:00;23.50;99.90
69204;DHT22;56317;27.658;85.326;2023-09-07T02:20:30;23.60;99.90
69204;DHT22;56317;27.658;85.326;2023-09-07T02:22:57;23.60;99.90
69204;DHT22;56317;27.658;85.326;2023-09-07T02:25:24;23.60;99.90
69204;DHT22;56317;27.658;85.326;2023-09-07T02:27:52;23.60;99.90
69204;DHT22;56317;27.658;85.326;2023-09-07T02:30:19;23.60;99.90
69204;DHT22;56317;27.658;85.326;2023-09-07T02:32:49;23.70;99.90
69204;DHT22;56317;27.658;85.326;2023-09-07T02:35:22;23.80;99.90
69204;DHT22;56317;27.658;85.326;2023-09-07T02:37:52;23.80;99.90
69204;DHT22;56317;27.658;85.326;2023-09-07T02:40:21;23.90;99.90
69204;DHT22;56317;27.658;85.326;2023-09-07T02:42:49;23.90;99.90
69204;DHT22;56317;27.658;85.326;2023-09-07T02:45:23;24.00;99.90
69204;DHT22;56317;27.658;85.326;2023-09-07T02:47:50;24.10;99.90
69204;DHT22;56317;27.658;85.326;2023-09-07T02:50:18;24.20;99.90
69204;DHT22;56317;27.658;85.326;2023-09-07T02:52:45;24.30;99.90
69204;DHT22;56317;27.658;85.326;2023-09-07T02:55:12;24.40;99.90
69204;DHT22;56317;27.658;85.326;2023-09-07T02:57:41;24.60;99.90
69204;DHT22;56317;27.658;85.326;2023-09-07T03:00:08;24.80;99.90
69204;DHT22;56317;27.658;85.326;2023-09-07T03:02:37;24.90;99.90
69204;DHT22;56317;27.658;85.326;2023-09-07T03:05:04;25.10;99.90
69204;DHT22;56317;27.658;85.326;2023-09-07T03:07:33;25.10;99.90
69204;DHT22;56317;27.658;85.326;2023-09-07T03:10:00;25.30;99.90
69204;DHT22;56317;27.658;85.326;2023-09-07T03:12:28;25.50;99.90
69204;DHT22;56317;27.658;85.326;2023-09-07T03:14:58;25.60;99.90
69204;DHT22;56317;27.658;85.326;2023-09-07T03:17:30;25.80;99.90
69204;DHT22;56317;27.658;85.326;2023-09-07T03:19:57;26.00;99.90
69204;DHT22;56317;27.658;85.326;2023-09-07T03:22:24;26.20;99.90
69204;DHT22;56317;27.658;85.326;2023-09-07T03:24:52;26.40;99.90
69204;DHT22;56317;27.658;85.326;2023-09-07T03:27:23;26.60;99.90
69204;DHT22;56317;27.658;85.326;2023-09-07T03:30:11;26.70;99.90
69204;DHT22;56317;27.658;85.326;2023-09-07T03:32:38;26.80;99.90
69204;DHT22;56317;27.658;85.326;2023-09-07T03:35:10;26.90;99.90
69204;DHT22;56317;27.658;85.326;2023-09-07T03:37:58;27.10;99.90
69204;DHT22;56317;27.658;85.326;2023-09-07T03:40:26;27.00;99.90
69204;DHT22;56317;27.658;85.326;2023-09-07T03:42:53;27.10;99.90
69204;DHT22;56317;27.658;85.326;2023-09-07T03:45:20;27.20;99.90
69204;DHT22;56317;27.658;85.326;2023-09-07T03:47:47;27.10;99.90
69204;DHT22;56317;27.658;85.326;2023-09-07T03:50:14;27.20;99.90
69204;DHT22;56317;27.658;85.326;2023-09-07T03:52:41;27.50;99.90
69204;DHT22;56317;27.658;85.326;2023-09-07T03:55:09;27.80;99.90
69204;DHT22;56317;27.658;85.326;2023-09-07T03:57:37;28.20;99.90
69204;DHT22;56317;27.658;85.326;2023-09-07T04:00:04;28.60;99.90
69204;DHT22;56317;27.658;85.326;2023-09-07T04:02:35;29.00;99.90
69204;DHT22;56317;27.658;85.326;2023-09-07T04:05:02;29.30;99.90
69204;DHT22;56317;27.658;85.326;2023-09-07T04:07:31;29.50;99.90
69204;DHT22;56317;27.658;85.326;2023-09-07T04:09:59;29.50;99.90
69204;DHT22;56317;27.658;85.326;2023-09-07T04:12:29;29.50;99.90
69204;DHT22;56317;27.658;85.326;2023-09-07T04:15:07;29.50;99.90
69204;DHT22;56317;27.658;85.326;2023-09-07T04:17:41;29.60;99.90
69204;DHT22;56317;27.658;85.326;2023-09-07T04:20:09;29.80;99.90
69204;DHT22;56317;27.658;85.326;2023-09-07T04:22:46;30.00;99.90
69204;DHT22;56317;27.658;85.326;2023-09-07T04:25:13;30.40;99.90
69204;DHT22;56317;27.658;85.326;2023-09-07T04:27:40;30.40;99.90
69204;DHT22;56317;27.658;85.326;2023-09-07T04:30:08;30.60;99.90
69204;DHT22;56317;27.658;85.326;2023-09-07T04:32:35;30.90;99.90
69204;DHT22;56317;27.658;85.326;2023-09-07T04:35:03;31.60;99.90
69204;DHT22;56317;27.658;85.326;2023-09-07T04:37:30;32.10;99.90
69204;DHT22;56317;27.658;85.326;2023-09-07T04:39:57;31.90;99.90
69204;DHT22;56317;27.658;85.326;2023-09-07T04:42:24;31.60;99.80
69204;DHT22;56317;27.658;85.326;2023-09-07T04:44:51;31.60;99.90
69204;DHT22;56317;27.658;85.326;2023-09-07T04:47:21;32.10;99.90
69204;DHT22;56317;27.658;85.326;2023-09-07T04:49:59;32.80;99.90
69204;DHT22;56317;27.658;85.326;2023-09-07T04:52:38;33.50;99.30
69204;DHT22;56317;27.658;85.326;2023-09-07T04:55:08;34.10;98.70
69204;DHT22;56317;27.658;85.326;2023-09-07T04:57:36;34.10;96.50
69204;DHT22;56317;27.658;85.326;2023-09-07T05:00:06;34.00;96.60
69204;DHT22;56317;27.658;85.326;2023-09-07T05:02:36;33.90;97.00
69204;DHT22;56317;27.658;85.326;2023-09-07T05:05:10;34.00;96.90
69204;DHT22;56317;27.658;85.326;2023-09-07T05:07:37;34.00;96.10
69204;DHT22;56317;27.658;85.326;2023-09-07T05:10:05;34.10;95.80
69204;DHT22;56317;27.658;85.326;2023-09-07T05:12:33;34.20;95.00
69204;DHT22;56317;27.658;85.326;2023-09-07T05:15:00;34.60;95.00
69204;DHT22;56317;27.658;85.326;2023-09-07T05:17:27;34.60;94.10
69204;DHT22;56317;27.658;85.326;2023-09-07T05:19:54;34.30;94.00
69204;DHT22;56317;27.658;85.326;2023-09-07T05:22:22;34.30;94.00
69204;DHT22;56317;27.658;85.326;2023-09-07T05:24:51;34.00;93.70
69204;DHT22;56317;27.658;85.326;2023-09-07T05:27:18;34.20;95.30
69204;DHT22;56317;27.658;85.326;2023-09-07T05:29:45;34.60;95.40
69204;DHT22;56317;27.658;85.326;2023-09-07T05:32:13;34.80;93.70
69204;DHT22;56317;27.658;85.326;2023-09-07T05:34:42;34.70;93.60
69204;DHT22;56317;27.658;85.326;2023-09-07T05:37:09;34.90;92.80
69204;DHT22;56317;27.658;85.326;2023-09-07T05:39:36;35.00;93.60
69204;DHT22;56317;27.658;85.326;2023-09-07T05:42:04;35.30;91.90
69204;DHT22;56317;27.658;85.326;2023-09-07T05:44:31;35.40;92.10
69204;DHT22;56317;27.658;85.326;2023-09-07T05:46:58;36.00;91.70
69204;DHT22;56317;27.658;85.326;2023-09-07T05:49:25;36.60;90.00
69204;DHT22;56317;27.658;85.326;2023-09-07T05:51:53;36.80;90.10
69204;DHT22;56317;27.658;85.326;2023-09-07T05:54:20;37.70;90.30
69204;DHT22;56317;27.658;85.326;2023-09-07T06:00:00;38.00;85.50
69204;DHT22;56317;27.658;85.326;2023-09-07T06:02:27;38.30;83.50
69204;DHT22;56317;27.658;85.326;2023-09-07T06:04:54;37.90;83.70
69204;DHT22;56317;27.658;85.326;2023-09-07T06:10:28;36.10;88.50
69204;DHT22;56317;27.658;85.326;2023-09-07T06:12:59;36.40;87.30
69204;DHT22;56317;27.658;85.326;2023-09-07T06:15:29;36.70;87.50
69204;DHT22;56317;27.658;85.326;2023-09-07T06:18:05;37.60;85.40
69204;DHT22;56317;27.658;85.326;2023-09-07T06:20:32;37.50;86.40
69204;DHT22;56317;27.658;85.326;2023-09-07T06:23:00;38.90;87.90
69204;DHT22;56317;27.658;85.326;2023-09-07T06:25:28;40.90;82.20
69204;DHT22;56317;27.658;85.326;2023-09-07T06:27:55;41.70;82.20
69204;DHT22;56317;27.658;85.326;2023-09-07T06:30:23;40.80;78.70
69204;DHT22;56317;27.658;85.326;2023-09-07T06:32:50;38.70;80.40
69204;DHT22;56317;27.658;85.326;2023-09-07T06:35:18;37.30;83.40
69204;DHT22;56317;27.658;85.326;2023-09-07T06:37:46;38.10;83.40
69204;DHT22;56317;27.658;85.326;2023-09-07T06:40:13;39.60;81.50
69204;DHT22;56317;27.658;85.326;2023-09-07T06:42:42;39.70;79.90
69204;DHT22;56317;27.658;85.326;2023-09-07T06:45:09;38.30;80.50
69204;DHT22;56317;27.658;85.326;2023-09-07T06:47:37;36.90;82.60
69204;DHT22;56317;27.658;85.326;2023-09-07T06:50:09;35.30;85.00
69204;DHT22;56317;27.658;85.326;2023-09-07T06:52:37;34.50;87.00
69204;DHT22;56317;27.658;85.326;2023-09-07T06:55:06;33.70;88.50
69204;DHT22;56317;27.658;85.326;2023-09-07T06:57:33;33.10;90.30
69204;DHT22;56317;27.658;85.326;2023-09-07T07:00:04;33.00;91.00
69204;DHT22;56317;27.658;85.326;2023-09-07T07:02:34;32.90;91.00
69204;DHT22;56317;27.658;85.326;2023-09-07T07:05:02;35.10;90.50
69204;DHT22;56317;27.658;85.326;2023-09-07T07:07:30;38.10;84.80
69204;DHT22;56317;27.658;85.326;2023-09-07T07:09:57;40.80;79.90
69204;DHT22;56317;27.658;85.326;2023-09-07T07:12:28;41.90;76.40
69204;DHT22;56317;27.658;85.326;2023-09-07T07:15:17;43.00;74.40
69204;DHT22;56317;27.658;85.326;2023-09-07T07:17:47;43.00;72.90
69204;DHT22;56317;27.658;85.326;2023-09-07T07:20:18;43.60;72.00
69204;DHT22;56317;27.658;85.326;2023-09-07T07:22:44;43.20;71.50
69204;DHT22;56317;27.658;85.326;2023-09-07T07:25:17;43.90;69.70
69204;DHT22;56317;27.658;85.326;2023-09-07T07:28:04;44.70;68.80
69204;DHT22;56317;27.658;85.326;2023-09-07T07:30:38;46.10;66.10
69204;DHT22;56317;27.658;85.326;2023-09-07T07:33:09;46.90;65.30
69204;DHT22;56317;27.658;85.326;2023-09-07T07:35:49;47.30;64.20
69204;DHT22;56317;27.658;85.326;2023-09-07T07:38:20;47.00;61.40
69204;DHT22;56317;27.658;85.326;2023-09-07T07:40:49;46.70;61.50
69204;DHT22;56317;27.658;85.326;2023-09-07T07:43:19;46.70;61.50
69204;DHT22;56317;27.658;85.326;2023-09-07T07:56:31;46.80;59.90
69204;DHT22;56317;27.658;85.326;2023-09-07T07:59:00;44.50;60.90
69204;DHT22;56317;27.658;85.326;2023-09-07T08:01:29;41.60;63.50
69204;DHT22;56317;27.658;85.326;2023-09-07T08:04:01;39.70;67.40
69204;DHT22;56317;27.658;85.326;2023-09-07T08:06:31;38.10;69.50
69204;DHT22;56317;27.658;85.326;2023-09-07T08:08:58;39.80;69.40
69204;DHT22;56317;27.658;85.326;2023-09-07T08:11:25;38.90;68.20
69204;DHT22;56317;27.658;85.326;2023-09-07T08:13:55;37.70;69.90
69204;DHT22;56317;27.658;85.326;2023-09-07T08:16:22;37.10;71.30
69204;DHT22;56317;27.658;85.326;2023-09-07T08:18:51;35.80;74.20
69204;DHT22;56317;27.658;85.326;2023-09-07T08:21:19;35.20;76.00
69204;DHT22;56317;27.658;85.326;2023-09-07T08:23:49;34.40;77.20
69204;DHT22;56317;27.658;85.326;2023-09-07T08:26:24;37.20;76.80
69204;DHT22;56317;27.658;85.326;2023-09-07T08:28:55;40.50;71.10
69204;DHT22;56317;27.658;85.326;2023-09-07T08:31:28;42.70;67.20
69204;DHT22;56317;27.658;85.326;2023-09-07T08:33:55;43.90;65.20
69204;DHT22;56317;27.658;85.326;2023-09-07T08:36:25;44.70;63.80
69204;DHT22;56317;27.658;85.326;2023-09-07T08:39:03;45.80;63.20
69204;DHT22;56317;27.658;85.326;2023-09-07T08:41:45;46.40;61.50
69204;DHT22;56317;27.658;85.326;2023-09-07T08:44:33;47.10;61.20
69204;DHT22;56317;27.658;85.326;2023-09-07T08:47:02;48.60;59.60
69204;DHT22;56317;27.658;85.326;2023-09-07T08:49:36;48.80;58.30
69204;DHT22;56317;27.658;85.326;2023-09-07T08:52:05;48.40;58.60
69204;DHT22;56317;27.658;85.326;2023-09-07T08:54:46;49.10;58.00
69204;DHT22;56317;27.658;85.326;2023-09-07T08:57:15;49.40;57.50
69204;DHT22;56317;27.658;85.326;2023-09-07T08:59:44;49.60;56.90
69204;DHT22;56317;27.658;85.326;2023-09-07T09:02:31;47.80;57.40
69204;DHT22;56317;27.658;85.326;2023-09-07T09:05:09;48.60;57.10
69204;DHT22;56317;27.658;85.326;2023-09-07T09:07:38;49.80;55.50
69204;DHT22;56317;27.658;85.326;2023-09-07T09:10:08;50.80;55.00
69204;DHT22;56317;27.658;85.326;2023-09-07T09:12:36;51.20;55.10
69204;DHT22;56317;27.658;85.326;2023-09-07T09:15:11;50.80;54.70
69204;DHT22;56317;27.658;85.326;2023-09-07T09:17:38;47.70;56.00
69204;DHT22;56317;27.658;85.326;2023-09-07T09:20:23;44.30;57.40
69204;DHT22;56317;27.658;85.326;2023-09-07T09:22:55;41.30;63.30
69204;DHT22;56317;27.658;85.326;2023-09-07T09:25:23;39.20;65.00
69204;DHT22;56317;27.658;85.326;2023-09-07T09:27:50;37.70;66.70
69204;DHT22;56317;27.658;85.326;2023-09-07T09:30:22;36.70;68.50
69204;DHT22;56317;27.658;85.326;2023-09-07T09:32:49;35.60;70.60
69204;DHT22;56317;27.658;85.326;2023-09-07T09:35:17;34.80;74.00
69204;DHT22;56317;27.658;85.326;2023-09-07T09:37:49;34.20;75.40
69204;DHT22;56317;27.658;85.326;2023-09-07T09:40:17;33.90;75.00
69204;DHT22;56317;27.658;85.326;2023-09-07T09:42:45;33.50;76.50
69204;DHT22;56317;27.658;85.326;2023-09-07T09:45:13;33.00;77.70
69204;DHT22;56317;27.658;85.326;2023-09-07T09:47:44;32.30;79.30
69204;DHT22;56317;27.658;85.326;2023-09-07T09:50:12;31.50;82.00
69204;DHT22;56317;27.658;85.326;2023-09-07T09:52:39;30.80;83.80
69204;DHT22;56317;27.658;85.326;2023-09-07T09:55:08;30.30;85.30
69204;DHT22;56317;27.658;85.326;2023-09-07T09:57:39;30.20;86.50
69204;DHT22;56317;27.658;85.326;2023-09-07T10:00:07;30.00;85.80
69204;DHT22;56317;27.658;85.326;2023-09-07T10:03:13;29.90;87.10
69204;DHT22;56317;27.658;85.326;2023-09-07T10:09:05;29.30;89.30
69204;DHT22;56317;27.658;85.326;2023-09-07T10:11:40;29.20;90.10
69204;DHT22;56317;27.658;85.326;2023-09-07T10:14:13;29.20;90.20
69204;DHT22;56317;27.658;85.326;2023-09-07T10:19:38;29.30;90.50
69204;DHT22;56317;27.658;85.326;2023-09-07T10:22:21;29.30;90.50
69204;DHT22;56317;27.658;85.326;2023-09-07T10:24:57;29.10;90.80
69204;DHT22;56317;27.658;85.326;2023-09-07T10:27:38;28.90;91.40
69204;DHT22;56317;27.658;85.326;2023-09-07T10:30:12;29.00;92.20
69204;DHT22;56317;27.658;85.326;2023-09-07T10:32:39;29.00;92.40
69204;DHT22;56317;27.658;85.326;2023-09-07T10:35:16;28.90;93.00
69204;DHT22;56317;27.658;85.326;2023-09-07T10:41:05;28.60;93.30
69204;DHT22;56317;27.658;85.326;2023-09-07T10:43:52;28.40;93.60
69204;DHT22;56317;27.658;85.326;2023-09-07T10:46:21;28.40;93.90
69204;DHT22;56317;27.658;85.326;2023-09-07T10:48:53;28.30;95.40
69204;DHT22;56317;27.658;85.326;2023-09-07T10:51:22;28.20;95.90
69204;DHT22;56317;27.658;85.326;2023-09-07T10:56:49;28.10;95.40
69204;DHT22;56317;27.658;85.326;2023-09-07T10:59:19;27.90;96.10
69204;DHT22;56317;27.658;85.326;2023-09-07T11:01:47;27.80;96.90
69204;DHT22;56317;27.658;85.326;2023-09-07T11:04:15;27.80;97.00
69204;DHT22;56317;27.658;85.326;2023-09-07T11:06:44;27.70;97.40
69204;DHT22;56317;27.658;85.326;2023-09-07T11:09:11;27.70;97.30
69204;DHT22;56317;27.658;85.326;2023-09-07T11:11:46;27.70;98.00
69204;DHT22;56317;27.658;85.326;2023-09-07T11:14:14;27.60;97.70
69204;DHT22;56317;27.658;85.326;2023-09-07T11:17:12;27.60;97.90
69204;DHT22;56317;27.658;85.326;2023-09-07T11:19:39;27.40;98.50
69204;DHT22;56317;27.658;85.326;2023-09-07T11:22:09;27.30;99.00
69204;DHT22;56317;27.658;85.326;2023-09-07T11:24:40;27.30;99.50
69204;DHT22;56317;27.658;85.326;2023-09-07T11:27:17;27.30;99.90
69204;DHT22;56317;27.658;85.326;2023-09-07T11:29:51;27.30;99.90
69204;DHT22;56317;27.658;85.326;2023-09-07T11:32:19;27.30;99.90
69204;DHT22;56317;27.658;85.326;2023-09-07T11:34:52;27.20;99.90
69204;DHT22;56317;27.658;85.326;2023-09-07T11:37:27;27.20;99.90
69204;DHT22;56317;27.658;85.326;2023-09-07T11:39:57;27.20;99.90
69204;DHT22;56317;27.658;85.326;2023-09-07T11:42:24;27.10;99.90
69204;DHT22;56317;27.658;85.326;2023-09-07T11:44:51;27.00;99.90
69204;DHT22;56317;27.658;85.326;2023-09-07T11:47:19;27.00;99.90
69204;DHT22;56317;27.658;85.326;2023-09-07T11:49:46;26.90;99.90
69204;DHT22;56317;27.658;85.326;2023-09-07T11:52:14;26.80;99.90
69204;DHT22;56317;27.658;85.326;2023-09-07T11:54:42;26.70;99.90
69204;DHT22;56317;27.658;85.326;2023-09-07T11:57:12;26.60;99.90
69204;DHT22;56317;27.658;85.326;2023-09-07T11:59:42;26.50;99.90
69204;DHT22;56317;27.658;85.326;2023-09-07T12:02:09;26.50;99.90
69204;DHT22;56317;27.658;85.326;2023-09-07T12:04:41;26.30;99.90
69204;DHT22;56317;27.658;85.326;2023-09-07T12:07:08;26.20;99.90
69204;DHT22;56317;27.658;85.326;2023-09-07T12:09:35;26.10;99.90
69204;DHT22;56317;27.658;85.326;2023-09-07T12:12:04;26.10;99.90
69204;DHT22;56317;27.658;85.326;2023-09-07T12:14:31;26.00;99.90
69204;DHT22;56317;27.658;85.326;2023-09-07T12:16:58;25.90;99.90
69204;DHT22;56317;27.658;85.326;2023-09-07T12:19:26;25.80;99.90
69204;DHT22;56317;27.658;85.326;2023-09-07T12:21:53;25.70;99.90
69204;DHT22;56317;27.658;85.326;2023-09-07T12:24:21;25.70;99.90
69204;DHT22;56317;27.658;85.326;2023-09-07T12:26:48;25.60;99.90
69204;DHT22;56317;27.658;85.326;2023-09-07T12:29:16;25.60;99.90
69204;DHT22;56317;27.658;85.326;2023-09-07T12:31:43;25.50;99.90
69204;DHT22;56317;27.658;85.326;2023-09-07T12:34:10;25.40;99.90
69204;DHT22;56317;27.658;85.326;2023-09-07T12:36:37;25.40;99.90
69204;DHT22;56317;27.658;85.326;2023-09-07T12:39:04;25.40;99.90
69204;DHT22;56317;27.658;85.326;2023-09-07T12:41:34;25.40;99.90
69204;DHT22;56317;27.658;85.326;2023-09-07T12:44:05;25.30;99.90
69204;DHT22;56317;27.658;85.326;2023-09-07T12:46:33;25.30;99.90
69204;DHT22;56317;27.658;85.326;2023-09-07T12:49:01;25.30;99.90
69204;DHT22;56317;27.658;85.326;2023-09-07T12:51:28;25.30;99.90
69204;DHT22;56317;27.658;85.326;2023-09-07T12:53:55;25.30;99.90
69204;DHT22;56317;27.658;85.326;2023-09-07T12:56:23;25.30;99.90
69204;DHT22;56317;27.658;85.326;2023-09-07T12:58:51;25.30;99.90
69204;DHT22;56317;27.658;85.326;2023-09-07T13:01:18;25.30;99.90
69204;DHT22;56317;27.658;85.326;2023-09-07T13:03:45;25.20;99.90
69204;DHT22;56317;27.658;85.326;2023-09-07T13:06:12;25.20;99.90
69204;DHT22;56317;27.658;85.326;2023-09-07T13:08:40;25.00;99.90
69204;DHT22;56317;27.658;85.326;2023-09-07T13:11:07;24.90;99.90
69204;DHT22;56317;27.658;85.326;2023-09-07T13:13:34;24.80;99.90
69204;DHT22;56317;27.658;85.326;2023-09-07T13:16:01;24.70;99.90
69204;DHT22;56317;27.658;85.326;2023-09-07T13:18:28;24.60;99.90
69204;DHT22;56317;27.658;85.326;2023-09-07T13:20:56;24.40;99.90
69204;DHT22;56317;27.658;85.326;2023-09-07T13:23:29;24.30;99.90
69204;DHT22;56317;27.658;85.326;2023-09-07T13:25:57;24.10;99.90
69204;DHT22;56317;27.658;85.326;2023-09-07T13:28:26;23.90;99.90
69204;DHT22;56317;27.658;85.326;2023-09-07T13:30:53;23.70;99.90
69204;DHT22;56317;27.658;85.326;2023-09-07T13:33:20;23.70;99.90
69204;DHT22;56317;27.658;85.326;2023-09-07T13:35:47;23.60;99.90
69204;DHT22;56317;27.658;85.326;2023-09-07T13:38:14;23.60;99.90
69204;DHT22;56317;27.658;85.326;2023-09-07T13:40:42;23.60;99.90
69204;DHT22;56317;27.658;85.326;2023-09-07T13:43:09;23.50;99.90
69204;DHT22;56317;27.658;85.326;2023-09-07T13:45:36;23.60;99.90
69204;DHT22;56317;27.658;85.326;2023-09-07T13:48:03;23.60;99.90
69204;DHT22;56317;27.658;85.326;2023-09-07T13:50:31;23.70;99.90
69204;DHT22;56317;27.658;85.326;2023-09-07T13:52:58;23.70;99.90
69204;DHT22;56317;27.658;85.326;2023-09-07T13:55:25;23.70;99.90
69204;DHT22;56317;27.658;85.326;2023-09-07T13:57:52;23.70;99.90
69204;DHT22;56317;27.658;85.326;2023-09-07T14:00:19;23.70;99.90
69204;DHT22;56317;27.658;85.326;2023-09-07T14:02:46;23.70;99.90
69204;DHT22;56317;27.658;85.326;2023-09-07T14:05:14;23.50;99.90
69204;DHT22;56317;27.658;85.326;2023-09-07T14:07:41;23.20;99.90
69204;DHT22;56317;27.658;85.326;2023-09-07T14:10:08;22.90;99.90
69204;DHT22;56317;27.658;85.326;2023-09-07T14:12:35;22.60;99.90
69204;DHT22;56317;27.658;85.326;2023-09-07T14:15:02;22.10;99.90
69204;DHT22;56317;27.658;85.326;2023-09-07T14:17:29;21.60;99.90
69204;DHT22;56317;27.658;85.326;2023-09-07T14:19:56;21.30;99.90
69204;DHT22;56317;27.658;85.326;2023-09-07T14:22:23;21.20;99.90
69204;DHT22;56317;27.658;85.326;2023-09-07T14:24:50;21.10;99.90
69204;DHT22;56317;27.658;85.326;2023-09-07T14:27:17;21.10;99.90
69204;DHT22;56317;27.658;85.326;2023-09-07T14:29:45;21.10;99.90
69204;DHT22;56317;27.658;85.326;2023-09-07T14:32:12;21.20;99.90
69204;DHT22;56317;27.658;85.326;2023-09-07T14:34:39;21.20;99.90
69204;DHT22;56317;27.658;85.326;2023-09-07T14:37:06;21.30;99.90
69204;DHT22;56317;27.658;85.326;2023-09-07T14:39:33;21.40;99.90
69204;DHT22;56317;27.658;85.326;2023-09-07T14:42:02;21.50;99.90
69204;DHT22;56317;27.658;85.326;2023-09-07T14:44:29;21.60;99.90
69204;DHT22;56317;27.658;85.326;2023-09-07T14:46:57;21.60;99.90
69204;DHT22;56317;27.658;85.326;2023-09-07T14:49:24;21.70;99.90
69204;DHT22;56317;27.658;85.326;2023-09-07T14:51:51;21.70;99.90
69204;DHT22;56317;27.658;85.326;2023-09-07T14:54:18;21.70;99.90
69204;DHT22;56317;27.658;85.326;2023-09-07T14:56:45;21.80;99.90
69204;DHT22;56317;27.658;85.326;2023-09-07T14:59:12;21.80;99.90
69204;DHT22;56317;27.658;85.326;2023-09-07T15:01:39;21.80;99.90
69204;DHT22;56317;27.658;85.326;2023-09-07T15:04:06;21.80;99.90
69204;DHT22;56317;27.658;85.326;2023-09-07T15:06:33;21.80;99.90
69204;DHT22;56317;27.658;85.326;2023-09-07T15:09:01;21.70;99.90
69204;DHT22;56317;27.658;85.326;2023-09-07T15:11:28;21.60;99.90
69204;DHT22;56317;27.658;85.326;2023-09-07T15:13:55;21.60;99.90
69204;DHT22;56317;27.658;85.326;2023-09-07T15:16:23;21.60;99.90
69204;DHT22;56317;27.658;85.326;2023-09-07T15:18:51;21.60;99.90
69204;DHT22;56317;27.658;85.326;2023-09-07T15:21:19;21.50;99.90
69204;DHT22;56317;27.658;85.326;2023-09-07T15:23:47;21.40;99.90
69204;DHT22;56317;27.658;85.326;2023-09-07T15:26:15;21.40;99.90
69204;DHT22;56317;27.658;85.326;2023-09-07T15:28:42;21.30;99.90
69204;DHT22;56317;27.658;85.326;2023-09-07T15:31:09;21.30;99.90
69204;DHT22;56317;27.658;85.326;2023-09-07T15:33:36;21.30;99.90
69204;DHT22;56317;27.658;85.326;2023-09-07T15:36:03;21.30;99.90
69204;DHT22;56317;27.658;85.326;2023-09-07T15:38:31;21.40;99.90
69204;DHT22;56317;27.658;85.326;2023-09-07T15:40:58;21.40;99.90
69204;DHT22;56317;27.658;85.326;2023-09-07T15:43:25;21.40;99.90
69204;DHT22;56317;27.658;85.326;2023-09-07T15:45:53;21.40;99.90
69204;DHT22;56317;27.658;85.326;2023-09-07T15:48:20;21.40;99.90
69204;DHT22;56317;27.658;85.326;2023-09-07T15:50:47;21.40;99.90
69204;DHT22;56317;27.658;85.326;2023-09-07T15:53:14;21.30;99.90
69204;DHT22;56317;27.658;85.326;2023-09-07T15:55:41;21.30;99.90
69204;DHT22;56317;27.658;85.326;2023-09-07T15:58:08;21.30;99.90